| time (UTC) | temp F | wind direction | speed knots | gust knots | rain 1hr in | rain 24hr in | rain mn in | humidity % | barometer mb |
| 20260510140002 | 70 | 199 | 0.0 | 7.0 | 0.00 | 0.00 | 0.00 | 63 | 1014.5 |
| 20260510134601 | 69 | 178 | 0.9 | 4.3 | 0.00 | 0.00 | 0.00 | 65 | 1014.5 |
| 20260510133057 | 68 | 228 | 0.0 | 4.3 | 0.00 | 0.00 | 0.00 | 67 | 1014.6 |
| 20260510131551 | 66 | 105 | 0.9 | 3.5 | 0.00 | 0.00 | 0.00 | 67 | 1014.6 |
| 20260510130048 | 66 | 113 | 0.0 | 1.7 | 0.00 | 0.00 | 0.00 | 67 | 1014.6 |
| 20260510124543 | 64 | 325 | 0.0 | 4.3 | 0.00 | 0.00 | 0.00 | 69 | 1014.5 |
| 20260510123041 | 63 | 322 | 0.9 | 4.3 | 0.00 | 0.00 | 0.00 | 70 | 1014.4 |
| 20260510121537 | 62 | 208 | 0.0 | 5.2 | 0.00 | 0.00 | 0.00 | 72 | 1014.4 |
| 20260510120033 | 61 | 313 | 1.7 | 7.0 | 0.00 | 0.00 | 0.00 | 73 | 1014.3 |
| 20260510114529 | 59 | 116 | 0.0 | 5.2 | 0.00 | 0.00 | 0.00 | 77 | 1014.1 |
| 20260510113028 | 56 | 126 | 0.0 | 5.2 | 0.00 | 0.00 | 0.00 | 82 | 1014.0 |
| 20260510111525 | 53 | 209 | 0.0 | 1.7 | 0.00 | 0.00 | 0.00 | 86 | 1013.7 |
| 20260510110022 | 53 | 38 | 0.0 | 0.0 | 0.00 | 0.00 | 0.00 | 84 | 1013.4 |
| 20260510104520 | 52 | 325 | 0.0 | 0.0 | 0.00 | 0.00 | 0.00 | 85 | 1013.1 |
| 20260510103018 | 52 | 325 | 0.0 | 0.9 | 0.00 | 0.00 | 0.00 | 85 | 1013.0 |
| 20260510101517 | 51 | 315 | 0.0 | 0.9 | 0.00 | 0.00 | 0.00 | 87 | 1012.8 |
| 20260510100015 | 51 | 317 | 0.0 | 0.9 | 0.00 | 0.00 | 0.00 | 86 | 1012.7 |
| 20260510094531 | 51 | 90 | 0.0 | 0.9 | 0.00 | 0.00 | 0.00 | 87 | 1012.6 |
| 20260510093011 | 51 | 323 | 0.0 | 2.6 | 0.00 | 0.00 | 0.00 | 85 | 1012.4 |
| 20260510091509 | 53 | 112 | 0.0 | 0.0 | 0.00 | 0.00 | 0.00 | 82 | 1012.3 |
| 20260510090007 | 54 | 346 | 0.0 | 0.0 | 0.00 | 0.00 | 0.00 | 80 | 1012.2 |
| 20260510084517 | 53 | 334 | 0.0 | 0.0 | 0.00 | 0.00 | 0.00 | 82 | 1012.3 |
| 20260510083005 | 53 | 355 | 0.0 | 0.0 | 0.00 | 0.00 | 0.00 | 82 | 1012.2 |
| 20260510081506 | 53 | 315 | 0.0 | 1.7 | 0.00 | 0.00 | 0.00 | 82 | 1012.1 |
| 20260510080002 | 53 | 353 | 0.0 | 1.7 | 0.00 | 0.00 | 0.00 | 81 | 1011.8 |
| 20260510074602 | 52 | 52 | 0.0 | 0.9 | 0.00 | 0.00 | 0.00 | 83 | 1011.7 |
| 20260510073059 | 53 | 67 | 0.0 | 0.9 | 0.00 | 0.00 | 0.00 | 80 | 1011.5 |
| 20260510071600 | 54 | 230 | 0.0 | 1.7 | 0.00 | 0.00 | 0.00 | 79 | 1011.5 |
| 20260510070058 | 53 | 24 | 0.0 | 0.9 | 0.00 | 0.00 | 0.00 | 79 | 1011.4 |
| 20260510064604 | 55 | 328 | 0.0 | 0.0 | 0.00 | 0.00 | 0.00 | 77 | 1011.4 |
| 20260510063056 | 54 | 328 | 0.0 | 0.9 | 0.00 | 0.00 | 0.00 | 78 | 1011.5 |
| 20260510061559 | 53 | 332 | 0.0 | 0.9 | 0.00 | 0.00 | 0.00 | 79 | 1011.5 |
| 20260510060055 | 53 | 66 | 0.0 | 1.7 | 0.00 | 0.00 | 0.00 | 81 | 1011.5 |
| 20260510054551 | 54 | 66 | 0.0 | 0.9 | 0.00 | 0.00 | 0.00 | 78 | 1011.6 |
| 20260510053048 | 56 | 50 | 0.0 | 0.9 | 0.00 | 0.00 | 0.00 | 74 | 1011.5 |
| 20260510051552 | 57 | 120 | 0.0 | 0.0 | 0.00 | 0.00 | 0.00 | 72 | 1011.6 |
| 20260510050043 | 57 | 315 | 0.0 | 1.7 | 0.00 | 0.00 | 0.00 | 72 | 1011.6 |
| 20260510044546 | 58 | 334 | 0.0 | 1.7 | 0.00 | 0.00 | 0.00 | 69 | 1011.4 |
| 20260510043040 | 58 | 321 | 0.0 | 1.7 | 0.00 | 0.00 | 0.00 | 71 | 1011.6 |
| 20260510041541 | 57 | 323 | 1.7 | 2.6 | 0.00 | 0.00 | 0.00 | 72 | 1011.4 |
| 20260510040033 | 59 | 326 | 0.0 | 2.6 | 0.00 | 0.00 | 0.00 | 68 | 1011.3 |
| 20260510034531 | 59 | 323 | 0.0 | 1.7 | 0.00 | 0.00 | 0.00 | 68 | 1011.4 |
| 20260510033031 | 61 | 309 | 0.0 | 2.6 | 0.00 | 0.00 | 0.00 | 64 | 1011.2 |
| 20260510031531 | 61 | 316 | 0.0 | 3.5 | 0.00 | 0.00 | 0.00 | 64 | 1011.1 |
| 20260510030029 | 60 | 316 | 0.0 | 1.7 | 0.00 | 0.00 | 0.00 | 65 | 1011.2 |
| 20260510024529 | 64 | 114 | 0.0 | 4.3 | 0.00 | 0.00 | 0.00 | 59 | 1010.9 |
| 20260510023028 | 63 | 312 | 0.9 | 2.6 | 0.00 | 0.00 | 0.00 | 59 | 1010.8 |
| 20260510021528 | 63 | 338 | 0.0 | 0.9 | 0.00 | 0.00 | 0.00 | 58 | 1010.7 |
| 20260510020027 | 64 | 85 | 0.0 | 1.7 | 0.00 | 0.00 | 0.00 | 57 | 1010.5 |
| 20260510014527 | 65 | 7 | 0.0 | 1.7 | 0.00 | 0.00 | 0.00 | 55 | 1010.2 |
| 20260510013026 | 66 | 109 | 0.0 | 3.5 | 0.00 | 0.00 | 0.00 | 53 | 1009.7 |
| 20260510011527 | 66 | 323 | 1.7 | 3.5 | 0.00 | 0.00 | 0.00 | 53 | 1009.6 |
| 20260510010025 | 66 | 332 | 0.9 | 4.3 | 0.00 | 0.00 | 0.00 | 53 | 1009.5 |
| 20260510004525 | 65 | 331 | 0.0 | 2.6 | 0.00 | 0.00 | 0.00 | 54 | 1009.3 |
| 20260510003035 | 66 | 310 | 0.0 | 2.6 | 0.00 | 0.00 | 0.00 | 52 | 1009.2 |
| 20260510001525 | 66 | 35 | 0.0 | 1.7 | 0.00 | 0.00 | 0.00 | 56 | 1009.1 |
| 20260510000024 | 68 | 128 | 0.9 | 4.3 | 0.00 | 0.00 | 0.00 | 50 | 1008.7 |
| 20260509234531 | 71 | 118 | 0.0 | 2.6 | 0.00 | 0.00 | 0.00 | 46 | 1008.4 |
| 20260509233022 | 71 | 64 | 0.0 | 3.5 | 0.00 | 0.00 | 0.00 | 46 | 1008.3 |
| 20260509231523 | 72 | 130 | 0.0 | 4.3 | 0.00 | 0.00 | 0.00 | 45 | 1008.1 |
| 20260509230021 | 72 | 192 | 0.9 | 5.2 | 0.00 | 0.00 | 0.00 | 46 | 1008.0 |
| 20260509224521 | 73 | 169 | 1.7 | 8.7 | 0.00 | 0.00 | 0.00 | 45 | 1008.0 |
| 20260509223021 | 73 | 301 | 0.9 | 7.8 | 0.00 | 0.00 | 0.00 | 44 | 1008.0 |
| 20260509221520 | 73 | 226 | 0.9 | 7.0 | 0.00 | 0.00 | 0.00 | 45 | 1008.0 |
| 20260509220025 | 73 | 233 | 0.9 | 5.2 | 0.00 | 0.00 | 0.00 | 47 | 1007.9 |
| 20260509214518 | 73 | 312 | 0.9 | 7.8 | 0.00 | 0.00 | 0.00 | 45 | 1007.9 |
| 20260509213018 | 73 | 227 | 0.9 | 4.3 | 0.00 | 0.00 | 0.00 | 46 | 1007.8 |
| 20260509211518 | 73 | 194 | 0.9 | 6.1 | 0.00 | 0.00 | 0.00 | 45 | 1007.6 |
| 20260509210015 | 73 | 235 | 1.7 | 8.7 | 0.00 | 0.00 | 0.00 | 45 | 1007.5 |
| 20260509204519 | 73 | 220 | 1.7 | 8.7 | 0.00 | 0.00 | 0.00 | 44 | 1007.5 |
| 20260509203014 | 74 | 220 | 2.6 | 8.7 | 0.00 | 0.00 | 0.00 | 44 | 1007.5 |
| 20260509201513 | 73 | 237 | 2.6 | 8.7 | 0.00 | 0.00 | 0.00 | 44 | 1007.4 |
| 20260509200012 | 76 | 232 | 2.6 | 9.6 | 0.00 | 0.00 | 0.00 | 42 | 1007.4 |
| 20260509194516 | 77 | 111 | 2.6 | 8.7 | 0.00 | 0.00 | 0.00 | 42 | 1007.4 |
| 20260509193008 | 76 | 130 | 1.7 | 5.2 | 0.00 | 0.00 | 0.00 | 46 | 1007.4 |
| 20260509191506 | 74 | 140 | 1.7 | 5.2 | 0.00 | 0.00 | 0.00 | 54 | 1007.6 |
| 20260509190003 | 73 | 106 | 1.7 | 6.1 | 0.00 | 0.00 | 0.00 | 53 | 1007.8 |
| 20260509184601 | 72 | 124 | 1.7 | 7.0 | 0.00 | 0.00 | 0.00 | 55 | 1007.9 |
| 20260509183103 | 72 | 123 | 1.7 | 7.0 | 0.00 | 0.00 | 0.00 | 55 | 1007.9 |
| 20260509181600 | 72 | 210 | 3.5 | 7.8 | 0.00 | 0.00 | 0.00 | 55 | 1008.3 |
| 20260509180053 | 72 | 122 | 0.9 | 5.2 | 0.00 | 0.00 | 0.00 | 56 | 1008.4 |
| 20260509174551 | 71 | 109 | 2.6 | 7.0 | 0.00 | 0.00 | 0.00 | 60 | 1008.5 |
| 20260509173051 | 70 | 109 | 2.6 | 6.1 | 0.00 | 0.00 | 0.00 | 58 | 1008.7 |
| 20260509171550 | 72 | 130 | 0.9 | 4.3 | 0.00 | 0.00 | 0.00 | 59 | 1009.0 |
| 20260509170049 | 69 | 100 | 0.9 | 3.5 | 0.00 | 0.00 | 0.00 | 62 | 1009.3 |
| 20260509164544 | 71 | 228 | 0.0 | 5.2 | 0.00 | 0.00 | 0.00 | 61 | 1009.5 |
| 20260509163040 | 71 | 127 | 1.7 | 6.1 | 0.00 | 0.00 | 0.00 | 60 | 1009.7 |
| 20260509161538 | 70 | 147 | 0.0 | 5.2 | 0.00 | 0.00 | 0.00 | 61 | 1009.6 |
| 20260509160037 | 69 | 133 | 0.9 | 4.3 | 0.00 | 0.00 | 0.00 | 62 | 1009.6 |
| 20260509154534 | 67 | 123 | 0.9 | 6.1 | 0.00 | 0.00 | 0.00 | 63 | 1009.7 |
| 20260509153038 | 67 | 114 | 1.7 | 7.0 | 0.00 | 0.00 | 0.00 | 62 | 1010.2 |
| 20260509151530 | 67 | 130 | 1.7 | 4.3 | 0.00 | 0.00 | 0.00 | 63 | 1010.1 |
| 20260509150028 | 66 | 116 | 0.9 | 3.5 | 0.00 | 0.00 | 0.00 | 64 | 1009.8 |
| 20260509144531 | 65 | 81 | 0.0 | 4.3 | 0.00 | 0.00 | 0.00 | 63 | 1010.3 |
| 20260509143023 | 64 | 197 | 0.9 | 5.2 | 0.00 | 0.00 | 0.00 | 65 | 1010.6 |
| 20260509141520 | 62 | 226 | 0.0 | 2.6 | 0.00 | 0.00 | 0.00 | 70 | 1010.5 |